Pittsfield, New York
Current Conditions -  °F | °C
As of 12:53 AM on Thursday 23 Oct 2014 (Local Time) from KRME Reporting Station
Few Clouds Few Clouds  
Wind Chill: 43°   Ceiling: Unl
Heat Index: 47°   Visibility: 10mi
Dew Point: 39°   Wind: 9mph
Humidity: 74%   Direction: 340°NNW
Pressure: 30.01"   Gusts: NA
Location:  42.6523°N, 75.3232°W
Report Text: KRME 230453Z AUTO 34008KT 310V010 10SM FEW120 08/04 A3001 RMK AO2 SLP164 T00830039 401390078
Loading
Personal Weather Stations






























Interactive Weather Map New forecast layout! Learn more

10-Day Weather Forecast

Advertisements
Track Severe Weather on mobile